Time,TemperatureF,DewpointF,PressureIn,WindDirection,WindDirectionDegrees,WindSpeedMPH,WindSpeedGustMPH,Humidity,HourlyPrecipIn,Conditions,Clouds,dailyrainin,SoftwareType,DateUTC
2013-08-18 00:21:00,80.0,47.0,29.73,North,9,1.0,-999.0,31,-99.99,,,-99.99,,2013-08-18 07:21:00,
2013-08-18 00:52:00,80.0,48.0,29.73,NNW,343,0.0,-999.0,33,-99.99,,,-99.99,,2013-08-18 07:52:00,
2013-08-18 01:12:00,79.0,48.0,29.74,North,351,1.0,-999.0,34,-99.99,,,-99.99,,2013-08-18 08:12:00,
2013-08-18 01:21:00,79.0,49.0,29.74,North,351,0.0,-999.0,35,-99.99,,,-99.99,,2013-08-18 08:21:00,
2013-08-18 01:52:00,76.0,51.0,29.74,West,269,0.0,-999.0,42,-99.99,,,-99.99,,2013-08-18 08:52:00,
2013-08-18 02:11:00,74.0,51.0,29.74,West,269,0.0,-999.0,45,-99.99,,,-99.99,,2013-08-18 09:11:00,
2013-08-18 02:21:00,73.0,52.0,29.74,West,269,0.0,-999.0,47,-99.99,,,-99.99,,2013-08-18 09:21:00,
2013-08-18 02:42:00,73.0,52.0,29.74,West,269,1.0,-999.0,47,-99.99,,,-99.99,,2013-08-18 09:42:00,
2013-08-18 02:53:00,73.0,51.0,29.73,West,271,1.0,-999.0,46,-99.99,,,-99.99,,2013-08-18 09:53:00,
2013-08-18 03:12:00,73.0,51.0,29.73,West,273,3.0,-999.0,46,-99.99,,,-99.99,,2013-08-18 10:12:00,
2013-08-18 03:22:00,73.0,51.0,29.73,West,272,1.0,-999.0,46,-99.99,,,-99.99,,2013-08-18 10:22:00,
2013-08-18 03:52:00,73.0,51.0,29.72,WNW,287,0.0,-999.0,46,-99.99,,,-99.99,,2013-08-18 10:52:00,
2013-08-18 04:11:00,72.0,51.0,29.72,NW,304,1.0,-999.0,47,-99.99,,,-99.99,,2013-08-18 11:11:00,
2013-08-18 04:22:00,72.0,52.0,29.72,NW,304,0.0,-999.0,49,-99.99,,,-99.99,,2013-08-18 11:22:00,
2013-08-18 04:51:00,70.0,51.0,29.72,NW,304,0.0,-999.0,51,-99.99,,,-99.99,,2013-08-18 11:51:00,
2013-08-18 05:11:00,69.0,51.0,29.72,NW,304,0.0,-999.0,53,-99.99,,,-99.99,,2013-08-18 12:11:00,
2013-08-18 05:21:00,69.0,52.0,29.72,NW,304,0.0,-999.0,55,-99.99,,,-99.99,,2013-08-18 12:21:00,
2013-08-18 05:52:00,67.0,51.0,29.73,NW,304,0.0,-999.0,57,-99.99,,,-99.99,,2013-08-18 12:52:00,
2013-08-18 06:11:00,67.0,51.0,29.74,NW,304,0.0,-999.0,57,-99.99,,,-99.99,,2013-08-18 13:11:00,
2013-08-18 06:21:00,67.0,52.0,29.75,NW,304,0.0,-999.0,58,-99.99,,,-99.99,,2013-08-18 13:21:00,
2013-08-18 06:52:00,67.0,54.0,29.75,NW,304,0.0,-999.0,63,-99.99,,,-99.99,,2013-08-18 13:52:00,
2013-08-18 07:11:00,67.0,55.0,29.76,NW,304,0.0,-999.0,65,-99.99,,,-99.99,,2013-08-18 14:11:00,
2013-08-18 07:21:00,67.0,56.0,29.75,NW,304,0.0,-999.0,68,-99.99,,,-99.99,,2013-08-18 14:21:00,
2013-08-18 07:53:00,69.0,53.0,29.76,NW,304,0.0,-999.0,56,-99.99,,,-99.99,,2013-08-18 14:53:00,
2013-08-18 08:11:00,71.0,54.0,29.77,NW,304,0.0,-999.0,56,-99.99,,,-99.99,,2013-08-18 15:11:00,
2013-08-18 08:22:00,72.0,53.0,29.76,NW,304,0.0,-999.0,52,-99.99,,,-99.99,,2013-08-18 15:22:00,
2013-08-18 08:43:00,74.0,54.0,29.76,NW,304,0.0,-999.0,49,-99.99,,,-99.99,,2013-08-18 15:43:00,
2013-08-18 08:53:00,76.0,54.0,29.75,NW,304,0.0,-999.0,46,-99.99,,,-99.99,,2013-08-18 15:53:00,
2013-08-18 09:13:00,79.0,55.0,29.75,NW,304,0.0,-999.0,44,-99.99,,,-99.99,,2013-08-18 16:13:00,
2013-08-18 09:23:00,81.0,55.0,29.75,NW,304,0.0,-999.0,41,-99.99,,,-99.99,,2013-08-18 16:23:00,
2013-08-18 09:42:00,84.0,53.0,29.75,NW,304,0.0,-999.0,35,-99.99,,,-99.99,,2013-08-18 16:42:00,
2013-08-18 09:52:00,85.0,53.0,29.75,East,98,0.0,-999.0,33,-99.99,,,-99.99,,2013-08-18 16:52:00,
2013-08-18 10:12:00,86.0,52.0,29.75,East,88,0.0,-999.0,31,-99.99,,,-99.99,,2013-08-18 17:12:00,
2013-08-18 10:23:00,87.0,52.0,29.76,East,90,0.0,-999.0,30,-99.99,,,-99.99,,2013-08-18 17:23:00,
2013-08-18 10:52:00,88.0,54.0,29.76,SE,138,2.0,-999.0,31,-99.99,,,-99.99,,2013-08-18 17:52:00,
2013-08-18 11:12:00,89.0,52.0,29.76,ESE,115,2.0,-999.0,28,-99.99,,,-99.99,,2013-08-18 18:12:00,
2013-08-18 11:21:00,89.0,52.0,29.76,SE,138,3.0,-999.0,28,-99.99,,,-99.99,,2013-08-18 18:21:00,
2013-08-18 11:52:00,90.0,52.0,29.75,ESE,109,2.0,-999.0,28,-99.99,,,-99.99,,2013-08-18 18:52:00,
2013-08-18 12:11:00,91.0,52.0,29.75,ESE,108,2.0,-999.0,27,-99.99,,,-99.99,,2013-08-18 19:11:00,
2013-08-18 12:22:00,91.0,50.0,29.74,East,83,2.0,-999.0,25,-99.99,,,-99.99,,2013-08-18 19:22:00,
2013-08-18 12:52:00,92.0,49.0,29.73,East,85,1.0,-999.0,23,-99.99,,,-99.99,,2013-08-18 19:52:00,
2013-08-18 13:11:00,93.0,48.0,29.73,ESE,115,2.0,-999.0,22,-99.99,,,-99.99,,2013-08-18 20:11:00,
2013-08-18 13:22:00,94.0,48.0,29.72,SSE,161,2.0,-999.0,21,-99.99,,,-99.99,,2013-08-18 20:22:00,
2013-08-18 13:52:00,94.0,48.0,29.71,ESE,111,4.0,-999.0,21,-99.99,,,-99.99,,2013-08-18 20:52:00,
2013-08-18 14:11:00,96.0,47.0,29.70,South,175,3.0,-999.0,19,-99.99,,,-99.99,,2013-08-18 21:11:00,
2013-08-18 14:21:00,95.0,46.0,29.70,SE,144,3.0,-999.0,19,-99.99,,,-99.99,,2013-08-18 21:21:00,
2013-08-18 14:53:00,96.0,47.0,29.69,ENE,64,1.0,-999.0,19,-99.99,,,-99.99,,2013-08-18 21:53:00,
2013-08-18 15:12:00,94.0,51.0,29.68,North,360,1.0,-999.0,23,-99.99,,,-99.99,,2013-08-18 22:12:00,
2013-08-18 15:23:00,91.0,49.0,29.68,NNW,330,2.0,-999.0,24,-99.99,,,-99.99,,2013-08-18 22:23:00,
2013-08-18 15:42:00,90.0,50.0,29.67,NNW,333,1.0,-999.0,26,-99.99,,,-99.99,,2013-08-18 22:42:00,
2013-08-18 15:52:00,90.0,53.0,29.67,NNW,330,0.0,-999.0,29,-99.99,,,-99.99,,2013-08-18 22:52:00,
2013-08-18 16:11:00,88.0,52.0,29.67,ESE,104,1.0,-999.0,29,-99.99,,,-99.99,,2013-08-18 23:11:00,
2013-08-18 16:22:00,87.0,52.0,29.67,South,186,1.0,-999.0,30,-99.99,,,-99.99,,2013-08-18 23:22:00,
2013-08-18 16:52:00,88.0,51.0,29.68,SSE,159,1.0,-999.0,28,-99.99,,,-99.99,,2013-08-18 23:52:00,
2013-08-18 17:11:00,84.0,52.0,29.68,ESE,114,7.0,-999.0,33,-99.99,,,-99.99,,2013-08-19 00:11:00,
2013-08-18 17:21:00,80.0,57.0,29.69,East,96,2.0,-999.0,46,-99.99,,,-99.99,,2013-08-19 00:21:00,
2013-08-18 17:42:00,79.0,58.0,29.68,NNW,346,0.0,-999.0,49,-99.99,,,-99.99,,2013-08-19 00:42:00,
2013-08-18 17:52:00,80.0,53.0,29.68,North,351,1.0,-999.0,40,-99.99,,,-99.99,,2013-08-19 00:52:00,
2013-08-18 18:11:00,82.0,51.0,29.68,NW,313,5.0,-999.0,34,-99.99,,,-99.99,,2013-08-19 01:11:00,
2013-08-18 18:22:00,82.0,51.0,29.68,North,351,7.0,-999.0,34,-99.99,,,-99.99,,2013-08-19 01:22:00,
2013-08-18 18:41:00,81.0,51.0,29.69,NNW,335,0.0,-999.0,35,-99.99,,,-99.99,,2013-08-19 01:41:00,
2013-08-18 18:52:00,81.0,50.0,29.68,West,272,3.0,-999.0,34,-99.99,,,-99.99,,2013-08-19 01:52:00,
2013-08-18 19:11:00,80.0,61.0,29.70,West,277,0.0,-999.0,52,-99.99,,,-99.99,,2013-08-19 02:11:00,
2013-08-18 19:21:00,77.0,59.0,29.72,ESE,119,2.0,-999.0,53,-99.99,,,-99.99,,2013-08-19 02:21:00,
2013-08-18 19:42:00,76.0,59.0,29.74,ESE,120,0.0,-999.0,55,-99.99,,,-99.99,,2013-08-19 02:42:00,
2013-08-18 19:52:00,75.0,56.0,29.74,ESE,120,0.0,-999.0,51,-99.99,,,-99.99,,2013-08-19 02:52:00,
2013-08-18 20:11:00,75.0,54.0,29.75,ESE,120,0.0,-999.0,48,-99.99,,,-99.99,,2013-08-19 03:11:00,
2013-08-18 20:21:00,76.0,55.0,29.75,ESE,120,0.0,-999.0,48,-99.99,,,-99.99,,2013-08-19 03:21:00,
2013-08-18 20:42:00,75.0,55.0,29.75,ESE,120,0.0,-999.0,49,-99.99,,,-99.99,,2013-08-19 03:42:00,
2013-08-18 20:53:00,75.0,55.0,29.76,ESE,120,0.0,-999.0,49,-99.99,,,-99.99,,2013-08-19 03:53:00,
2013-08-18 21:12:00,75.0,55.0,29.76,ESE,120,0.0,-999.0,50,-99.99,,,-99.99,,2013-08-19 04:12:00,
2013-08-18 21:23:00,74.0,54.0,29.75,SE,125,1.0,-999.0,50,-99.99,,,-99.99,,2013-08-19 04:23:00,
2013-08-18 21:53:00,76.0,51.0,29.75,West,268,2.0,-999.0,42,-99.99,,,-99.99,,2013-08-19 04:53:00,
2013-08-18 22:11:00,76.0,51.0,29.75,West,273,2.0,-999.0,41,-99.99,,,-99.99,,2013-08-19 05:11:00,
2013-08-18 22:22:00,76.0,50.0,29.75,West,272,1.0,-999.0,40,-99.99,,,-99.99,,2013-08-19 05:22:00,
2013-08-18 22:52:00,76.0,49.0,29.76,West,278,2.0,-999.0,38,-99.99,,,-99.99,,2013-08-19 05:52:00,
2013-08-18 23:11:00,76.0,49.0,29.76,West,278,0.0,-999.0,38,-99.99,,,-99.99,,2013-08-19 06:11:00,
2013-08-18 23:21:00,76.0,49.0,29.76,West,278,1.0,-999.0,39,-99.99,,,-99.99,,2013-08-19 06:21:00,
2013-08-18 23:51:00,75.0,49.0,29.77,West,278,0.0,-999.0,40,-99.99,,,-99.99,,2013-08-19 06:51:00,